createdAt,value
2023-02-24T00:01:13.318Z,11.50
2023-02-24T00:03:40.186Z,10.25
2023-02-24T00:06:07.833Z,11.25
2023-02-24T00:08:34.604Z,11.25
2023-02-24T00:11:07.637Z,12.75
2023-02-24T00:13:34.461Z,12.00
2023-02-24T00:16:04.981Z,9.25
2023-02-24T00:18:32.568Z,11.75
2023-02-24T00:21:04.136Z,9.25
2023-02-24T00:23:31.595Z,11.75
2023-02-24T00:25:59.809Z,10.00
2023-02-24T00:28:28.298Z,13.25
2023-02-24T00:30:55.352Z,10.75
2023-02-24T00:33:23.894Z,9.00
2023-02-24T00:35:51.109Z,12.00
2023-02-24T00:38:18.023Z,9.00
2023-02-24T00:40:44.821Z,12.25
2023-02-24T00:43:11.695Z,11.00
2023-02-24T00:45:39.161Z,11.75
2023-02-24T00:48:06.377Z,9.00
2023-02-24T00:50:35.083Z,8.00
2023-02-24T00:53:02.378Z,8.00
2023-02-24T00:55:29.552Z,8.00
2023-02-24T00:57:57.993Z,8.50
2023-02-24T01:00:24.845Z,8.50
2023-02-24T01:02:51.887Z,16.25
2023-02-24T01:05:18.680Z,15.25
2023-02-24T01:07:47.216Z,11.00
2023-02-24T01:10:14.127Z,10.75
2023-02-24T01:12:40.867Z,6.50
2023-02-24T01:15:08.804Z,9.00
2023-02-24T01:17:36.427Z,14.00
2023-02-24T01:20:04.069Z,11.50
2023-02-24T01:22:30.936Z,5.75
2023-02-24T01:24:59.212Z,6.75
2023-02-24T01:27:26.366Z,7.50
2023-02-24T01:29:53.159Z,7.75
2023-02-24T01:32:21.878Z,9.00
2023-02-24T01:34:52.596Z,5.50
2023-02-24T01:37:20.354Z,9.00
2023-02-24T01:39:48.285Z,6.00
2023-02-24T01:42:19.235Z,6.50
2023-02-24T01:45:11.794Z,19.00
2023-02-24T01:47:39.170Z,8.50
2023-02-24T01:50:08.278Z,14.00
2023-02-24T01:52:37.317Z,9.00
2023-02-24T01:55:11.174Z,10.25
2023-02-24T01:57:40.251Z,10.00
2023-02-24T02:00:10.428Z,5.75
2023-02-24T02:02:38.491Z,12.00
2023-02-24T02:05:08.060Z,8.00
2023-02-24T02:07:35.945Z,11.00
2023-02-24T02:10:02.930Z,9.50
2023-02-24T02:12:32.842Z,27.00
2023-02-24T02:15:01.197Z,21.00
2023-02-24T02:17:36.697Z,11.00
2023-02-24T02:20:33.039Z,10.00
2023-02-24T02:23:33.759Z,11.25
2023-02-24T02:26:20.257Z,12.00
2023-02-24T02:29:10.303Z,14.25
2023-02-24T02:32:04.953Z,12.00
2023-02-24T02:34:45.687Z,17.25
2023-02-24T02:37:18.068Z,20.25
2023-02-24T02:39:50.822Z,24.00
2023-02-24T02:42:28.000Z,16.50
2023-02-24T02:45:05.236Z,15.75
2023-02-24T02:47:38.061Z,23.25
2023-02-24T02:50:12.677Z,23.75
2023-02-24T02:52:43.034Z,18.25
2023-02-24T02:55:14.717Z,44.75
2023-02-24T02:57:49.440Z,35.00
2023-02-24T03:00:22.150Z,30.00
2023-02-24T03:02:51.949Z,42.00
2023-02-24T03:05:25.698Z,53.00
2023-02-24T03:07:54.784Z,24.00
2023-02-24T03:10:25.106Z,31.25
2023-02-24T03:12:55.973Z,18.25
2023-02-24T03:15:25.684Z,28.50
2023-02-24T03:17:56.992Z,26.00
2023-02-24T03:20:30.295Z,30.00
2023-02-24T03:23:03.848Z,21.00
2023-02-24T03:25:39.913Z,43.67
2023-02-24T03:28:14.699Z,270.00
2023-02-24T03:30:46.502Z,450.00
2023-02-24T03:33:20.163Z,459.67
2023-02-24T03:35:48.537Z,55.75
2023-02-24T03:38:15.344Z,73.00
2023-02-24T03:40:42.321Z,73.67
2023-02-24T03:43:16.341Z,77.75
2023-02-24T03:45:43.824Z,471.20
2023-02-24T03:48:10.842Z,1102.25
2023-02-24T03:50:39.769Z,91.00
2023-02-24T03:53:31.016Z,1508.60
2023-02-24T03:56:08.415Z,1353.40
2023-02-24T03:58:47.921Z,88.40
2023-02-24T04:01:22.267Z,804.00
2023-02-24T04:03:58.041Z,403.80
2023-02-24T04:06:35.319Z,72.33
2023-02-24T04:09:15.285Z,2464.80
2023-02-24T04:11:47.215Z,1208.00
2023-02-24T04:14:21.406Z,3387.75
2023-02-24T04:16:55.803Z,320.00
2023-02-24T04:19:27.159Z,61.67
2023-02-24T04:21:55.996Z,65.33
2023-02-24T04:24:28.576Z,456.00
2023-02-24T04:26:58.564Z,71.00
2023-02-24T04:29:28.685Z,707.60
2023-02-24T04:32:01.115Z,184.25
2023-02-24T04:34:28.193Z,1354.00
2023-02-24T04:36:54.996Z,566.75
2023-02-24T04:39:22.164Z,1783.00
2023-02-24T04:41:50.849Z,187.00
2023-02-24T04:44:18.773Z,88.40
2023-02-24T04:46:46.684Z,1282.40
2023-02-24T04:49:13.747Z,83.25
2023-02-24T04:51:40.728Z,1602.60
2023-02-24T04:54:07.402Z,896.40
2023-02-24T04:56:34.498Z,595.25
2023-02-24T04:59:03.588Z,1999.00
2023-02-24T05:01:30.728Z,88.40
2023-02-24T05:03:57.523Z,98.50
2023-02-24T05:06:24.385Z,1994.00
2023-02-24T05:08:51.249Z,596.25
2023-02-24T05:11:18.924Z,98.80
2023-02-24T05:13:46.351Z,1380.40
2023-02-24T05:16:16.232Z,1145.40
2023-02-24T05:18:43.856Z,196.80
2023-02-24T05:21:12.577Z,799.75
2023-02-24T05:23:41.725Z,299.40
2023-02-24T05:26:09.393Z,136.40
2023-02-24T05:28:37.539Z,1301.00
2023-02-24T05:31:06.378Z,927.00
2023-02-24T05:33:34.869Z,1300.20
2023-02-24T05:36:05.847Z,1393.00
2023-02-24T05:38:33.039Z,2288.25
2023-02-24T05:41:06.030Z,2365.00
2023-02-24T05:43:33.250Z,1226.20
2023-02-24T05:46:00.423Z,1500.25
2023-02-24T05:48:27.224Z,2998.50
2023-02-24T05:50:55.936Z,1764.80
2023-02-24T05:53:22.726Z,926.25
2023-02-24T05:55:49.631Z,2190.50
2023-02-24T05:58:16.765Z,1548.60
2023-02-24T06:00:43.630Z,908.20
2023-02-24T06:03:10.737Z,2871.00
2023-02-24T06:05:37.418Z,3059.75
2023-02-24T06:08:05.754Z,2708.40
2023-02-24T06:10:33.590Z,3262.75
2023-02-24T06:13:01.487Z,2966.50
2023-02-24T06:15:28.536Z,3072.00
2023-02-24T06:17:55.709Z,1540.80
2023-02-24T06:20:23.615Z,1505.00
2023-02-24T06:22:50.406Z,3551.50
2023-02-24T06:25:18.757Z,3089.00
2023-02-24T06:27:46.093Z,3172.00
2023-02-24T06:30:14.539Z,2700.80
2023-02-24T06:32:41.666Z,3342.00
2023-02-24T06:35:09.922Z,2687.80
2023-02-24T06:37:36.759Z,3061.50
2023-02-24T06:40:04.094Z,2634.60
2023-02-24T06:42:32.800Z,2796.00
2023-02-24T06:44:59.631Z,3155.00
2023-02-24T06:47:26.822Z,2693.00
2023-02-24T06:49:53.709Z,3084.00
2023-02-24T06:52:20.683Z,81.60
2023-02-24T06:54:49.313Z,3724.75
2023-02-24T06:57:16.247Z,2148.00
2023-02-24T06:59:44.794Z,2794.80
2023-02-24T07:02:11.634Z,812.20
2023-02-24T07:04:38.944Z,3242.20
2023-02-24T07:07:05.735Z,1831.20
2023-02-24T07:09:32.832Z,3639.50
2023-02-24T07:11:59.970Z,3051.75
2023-02-24T07:14:28.885Z,1569.75
2023-02-24T07:16:57.891Z,1048.60
2023-02-24T07:19:27.206Z,4028.80
2023-02-24T07:21:57.052Z,3652.00
2023-02-24T07:24:23.959Z,1996.80
2023-02-24T07:26:57.198Z,245.60
2023-02-24T07:29:24.457Z,3589.60
2023-02-24T07:31:51.771Z,3999.00
2023-02-24T07:34:21.622Z,2842.00
2023-02-24T07:36:48.649Z,1187.00
2023-02-24T07:39:16.518Z,1199.60
2023-02-24T07:41:43.935Z,2581.80
2023-02-24T07:44:10.821Z,2829.50
2023-02-24T07:46:37.915Z,2967.25
2023-02-24T07:49:04.744Z,2785.20
2023-02-24T07:51:33.047Z,812.60
2023-02-24T07:54:00.617Z,2261.60
2023-02-24T07:56:29.173Z,75.00
2023-02-24T07:58:59.905Z,86.60
2023-02-24T08:01:27.266Z,1262.00
2023-02-24T08:03:56.332Z,1056.75
2023-02-24T08:06:23.358Z,1671.25
2023-02-24T08:08:51.887Z,3227.25
2023-02-24T08:11:19.053Z,91.20
2023-02-24T08:13:46.367Z,708.40
2023-02-24T08:16:13.217Z,1042.50
2023-02-24T08:18:40.247Z,3193.40
2023-02-24T08:21:07.429Z,4001.25
2023-02-24T08:23:34.612Z,1674.20
2023-02-24T08:26:04.128Z,3126.25
2023-02-24T08:28:31.207Z,3985.00
2023-02-24T08:30:58.430Z,3219.20
2023-02-24T08:33:25.651Z,3999.80
2023-02-24T08:35:53.970Z,2402.40
2023-02-24T08:38:24.287Z,2944.20
2023-02-24T08:40:53.069Z,291.80
2023-02-24T08:43:25.146Z,57.80
2023-02-24T08:45:55.300Z,3587.80
2023-02-24T08:48:24.857Z,3847.25
2023-02-24T08:50:53.034Z,50.50
2023-02-24T08:53:20.203Z,65.00
2023-02-24T08:55:47.799Z,2419.00
2023-02-24T08:58:14.564Z,2234.75
2023-02-24T09:00:42.919Z,3669.00
2023-02-24T09:03:10.236Z,2411.25
2023-02-24T09:05:36.881Z,478.25
2023-02-24T09:08:03.734Z,79.20
2023-02-24T09:10:30.554Z,3274.40
2023-02-24T09:12:57.705Z,1790.80
2023-02-24T09:15:24.816Z,3164.00
2023-02-24T09:17:53.053Z,2865.40
2023-02-24T09:20:22.635Z,2921.40
2023-02-24T09:22:49.559Z,3091.80
2023-02-24T09:25:16.637Z,3882.40
2023-02-24T09:27:44.027Z,2778.80
2023-02-24T09:30:12.863Z,993.00
2023-02-24T09:32:40.725Z,3674.20
2023-02-24T09:35:09.494Z,3578.40
2023-02-24T09:37:36.365Z,149.20
2023-02-24T09:40:03.487Z,1779.80
2023-02-24T09:42:36.084Z,1229.80
2023-02-24T09:45:06.535Z,843.00
2023-02-24T09:47:39.422Z,1703.40
2023-02-24T09:50:32.980Z,2459.60
2023-02-24T09:53:11.421Z,2137.20
2023-02-24T09:55:43.792Z,2833.20
2023-02-24T09:58:23.601Z,1974.80
2023-02-24T10:01:04.430Z,263.40
2023-02-24T10:03:35.919Z,2061.40
2023-02-24T10:06:17.463Z,2738.75
2023-02-24T10:08:53.876Z,3334.80
2023-02-24T10:11:23.629Z,1940.80
2023-02-24T10:13:55.201Z,1979.00
2023-02-24T10:16:24.020Z,2440.80
2023-02-24T10:18:52.896Z,3884.60
2023-02-24T10:21:28.212Z,3199.60
2023-02-24T10:24:04.168Z,70.20
2023-02-24T10:26:39.154Z,449.80
2023-02-24T10:29:19.047Z,308.60
2023-02-24T10:31:47.898Z,3399.20
2023-02-24T10:34:17.348Z,3305.50
2023-02-24T10:36:46.708Z,2060.80
2023-02-24T10:39:16.721Z,1801.00
2023-02-24T10:41:46.768Z,777.50
2023-02-24T10:44:21.566Z,1031.00
2023-02-24T10:46:59.709Z,3097.75
2023-02-24T10:49:26.798Z,3390.60
2023-02-24T10:51:57.714Z,3238.60
2023-02-24T10:54:26.868Z,3439.75
2023-02-24T10:56:53.969Z,384.20
2023-02-24T10:59:21.239Z,3456.20
2023-02-24T11:01:54.249Z,2396.40
2023-02-24T11:04:22.384Z,3270.20
2023-02-24T11:06:49.838Z,3748.60
2023-02-24T11:09:20.871Z,2674.60
2023-02-24T11:11:48.672Z,3290.00
2023-02-24T11:14:18.020Z,2459.80
2023-02-24T11:16:48.154Z,1219.00
2023-02-24T11:19:15.847Z,1483.25
2023-02-24T11:21:43.807Z,302.40
2023-02-24T11:24:18.926Z,1597.00
2023-02-24T11:26:46.239Z,2229.75
2023-02-24T11:29:27.931Z,2050.00
2023-02-24T11:32:15.688Z,2068.25
2023-02-24T11:34:48.861Z,575.80
2023-02-24T11:37:27.358Z,3578.40
2023-02-24T11:40:01.056Z,1600.80
2023-02-24T11:42:36.914Z,2700.60
2023-02-24T11:45:12.319Z,3269.25
2023-02-24T11:47:44.051Z,600.00
2023-02-24T11:50:26.803Z,534.00
2023-02-24T11:52:57.339Z,3799.25
2023-02-24T11:55:31.560Z,1946.60
2023-02-24T11:58:01.850Z,763.20
2023-02-24T12:00:33.709Z,824.25
2023-02-24T12:03:07.459Z,178.00
2023-02-24T12:05:38.597Z,2528.80
2023-02-24T12:08:14.996Z,1212.40
2023-02-24T12:10:48.219Z,100.60
2023-02-24T12:13:24.421Z,903.50
2023-02-24T12:15:59.301Z,835.00
2023-02-24T12:18:32.214Z,167.40
2023-02-24T12:21:03.939Z,468.00
2023-02-24T12:23:33.490Z,87.40
2023-02-24T12:26:15.687Z,956.20
2023-02-24T12:29:04.019Z,117.00
2023-02-24T12:31:39.598Z,402.75
2023-02-24T12:34:12.475Z,31.00
2023-02-24T12:36:58.445Z,8.25
2023-02-24T12:39:30.383Z,11.50
2023-02-24T12:42:08.483Z,4.50
2023-02-24T12:44:44.704Z,12.50
2023-02-24T12:47:15.715Z,10.50
2023-02-24T12:49:58.612Z,1.00
2023-02-24T12:52:35.390Z,5.50
2023-02-24T12:55:11.427Z,1.00
2023-02-24T12:57:48.073Z,7.75
2023-02-24T13:00:23.839Z,9.50
2023-02-24T13:02:59.855Z,4.50
2023-02-24T13:05:32.404Z,4.00
2023-02-24T13:08:15.296Z,2.75
2023-02-24T13:10:47.520Z,5.00
2023-02-24T13:13:23.743Z,15.50
2023-02-24T13:15:53.789Z,11.50
2023-02-24T13:18:25.228Z,32.00
2023-02-24T13:21:04.326Z,11.00
2023-02-24T13:23:31.682Z,370.75
2023-02-24T13:25:59.034Z,74.25
2023-02-24T13:28:30.364Z,57.75
2023-02-24T13:30:59.343Z,54.00
2023-02-24T13:33:31.392Z,22.25
2023-02-24T13:36:15.060Z,24.25
2023-02-24T13:38:44.469Z,25.00
2023-02-24T13:41:24.552Z,18.75
2023-02-24T13:43:58.247Z,16.75
2023-02-24T13:46:29.618Z,19.25
2023-02-24T13:49:18.564Z,30.75
2023-02-24T13:52:02.138Z,75.00
2023-02-24T13:54:58.926Z,43.50
2023-02-24T13:57:56.636Z,13.25
2023-02-24T14:00:37.059Z,8.50
2023-02-24T14:03:11.393Z,18.75
2023-02-24T14:05:41.295Z,9.00
2023-02-24T14:08:08.275Z,3.50
2023-02-24T14:10:37.246Z,7.25
2023-02-24T14:13:08.237Z,12.25
2023-02-24T14:15:43.259Z,6.00
2023-02-24T14:18:19.756Z,12.00
2023-02-24T14:20:46.916Z,6.50
2023-02-24T14:23:22.763Z,7.00
2023-02-24T14:25:55.297Z,15.00
2023-02-24T14:28:25.583Z,3.25
2023-02-24T14:30:59.587Z,6.00
2023-02-24T14:33:30.218Z,6.00
2023-02-24T14:35:57.766Z,8.00
2023-02-24T14:38:33.698Z,40.00
2023-02-24T14:41:01.319Z,8.75
2023-02-24T14:43:28.763Z,4.00
2023-02-24T14:45:57.422Z,4.00
2023-02-24T14:48:26.110Z,7.25
2023-02-24T14:50:56.096Z,3.00
2023-02-24T14:53:25.800Z,7.75
2023-02-24T14:55:56.393Z,39.25
2023-02-24T14:58:29.596Z,14.75
2023-02-24T15:01:01.968Z,27.00
2023-02-24T15:03:36.035Z,21.75
2023-02-24T15:06:07.051Z,22.25
2023-02-24T15:08:38.145Z,13.75
2023-02-24T15:11:18.542Z,2.75
2023-02-24T15:13:49.622Z,2.75
2023-02-24T15:16:23.402Z,10.00
2023-02-24T15:18:51.616Z,21.25
2023-02-24T15:21:27.937Z,8.00
2023-02-24T15:24:00.347Z,3.67
2023-02-24T15:26:29.898Z,1.33
2023-02-24T15:29:02.672Z,2.00
2023-02-24T15:31:31.100Z,6.00
2023-02-24T15:34:00.982Z,2.00
2023-02-24T15:36:31.814Z,1.00
2023-02-24T15:39:02.759Z,1.00
2023-02-24T15:41:39.421Z,2.33
2023-02-24T15:44:06.743Z,2.00
2023-02-24T15:46:35.813Z,2.00
2023-02-24T15:49:05.240Z,2.00
2023-02-24T15:51:37.416Z,2.00
2023-02-24T15:54:08.305Z,3.50
2023-02-24T15:56:36.189Z,18.00
2023-02-24T15:59:03.339Z,2.75
2023-02-24T16:01:30.780Z,4.00
2023-02-24T16:03:59.474Z,3.67
2023-02-24T16:06:28.136Z,2.67
2023-02-24T16:08:56.096Z,4.67
2023-02-24T16:11:26.808Z,8.25
2023-02-24T16:13:57.177Z,3.33
2023-02-24T16:16:26.915Z,18.75
2023-02-24T16:18:54.237Z,0.00
2023-02-24T16:21:23.232Z,1.00
2023-02-24T16:23:50.463Z,3.50
2023-02-24T16:26:18.818Z,1.50
2023-02-24T16:28:52.693Z,1.00
2023-02-24T16:31:19.841Z,1.00
2023-02-24T16:33:54.497Z,1.00
2023-02-24T16:36:25.701Z,1.00
2023-02-24T16:38:52.827Z,0.50
2023-02-24T16:41:19.747Z,0.00
2023-02-24T16:43:46.934Z,1.00
2023-02-24T16:46:16.176Z,1.00
2023-02-24T16:48:46.113Z,2.50
2023-02-24T16:51:13.893Z,2.00
2023-02-24T16:53:43.214Z,42.25
2023-02-24T16:56:10.194Z,22.25
2023-02-24T16:58:37.206Z,42.75
2023-02-24T17:01:05.459Z,63.50
2023-02-24T17:03:41.403Z,75.50
2023-02-24T17:06:08.803Z,80.50
2023-02-24T17:08:35.926Z,59.25
2023-02-24T17:11:05.206Z,27.00
2023-02-24T17:13:32.353Z,13.25
2023-02-24T17:15:59.521Z,18.00
2023-02-24T17:18:26.986Z,12.75
2023-02-24T17:20:53.850Z,16.00
2023-02-24T17:23:21.950Z,16.75
2023-02-24T17:25:53.058Z,16.25
2023-02-24T17:28:21.950Z,13.50
2023-02-24T17:30:49.205Z,11.75
2023-02-24T17:33:16.243Z,10.00
2023-02-24T17:35:44.298Z,21.25
2023-02-24T17:38:12.109Z,25.50
2023-02-24T17:40:39.420Z,21.75
2023-02-24T17:43:06.311Z,22.00
2023-02-24T17:45:34.596Z,20.75
2023-02-24T17:48:01.501Z,26.75
2023-02-24T17:50:28.637Z,22.50
2023-02-24T17:52:55.670Z,21.50
2023-02-24T17:55:22.524Z,20.75
2023-02-24T17:57:49.339Z,14.25
2023-02-24T18:00:17.379Z,17.25
2023-02-24T18:02:45.944Z,10.75
2023-02-24T18:05:12.930Z,9.50
2023-02-24T18:07:40.023Z,10.50
2023-02-24T18:10:08.268Z,8.25
2023-02-24T18:12:35.172Z,8.00
2023-02-24T18:15:08.268Z,5.50
2023-02-24T18:17:36.539Z,7.75
2023-02-24T18:20:07.069Z,0.75
2023-02-24T18:22:34.500Z,2.25
2023-02-24T18:25:01.573Z,1.00
2023-02-24T18:27:28.907Z,1.00
2023-02-24T18:29:56.017Z,1.50
2023-02-24T18:32:23.348Z,8.75
2023-02-24T18:34:50.326Z,7.00
2023-02-24T18:37:18.883Z,6.00
2023-02-24T18:39:45.863Z,26.25
2023-02-24T18:42:13.044Z,55.75
2023-02-24T18:44:40.067Z,59.25
2023-02-24T18:47:07.008Z,31.50
2023-02-24T18:49:33.745Z,58.25
2023-02-24T18:52:00.578Z,13.00
2023-02-24T18:54:29.079Z,1.00
2023-02-24T18:56:55.848Z,3.75
2023-02-24T18:59:22.720Z,2.25
2023-02-24T19:01:49.885Z,3.75
2023-02-24T19:04:16.977Z,2.00
2023-02-24T19:06:43.746Z,2.75
2023-02-24T19:09:11.876Z,3.25
2023-02-24T19:11:41.209Z,8.75
2023-02-24T19:14:10.966Z,11.50
2023-02-24T19:16:38.835Z,12.25
2023-02-24T19:19:05.770Z,14.50
2023-02-24T19:21:33.356Z,17.00
2023-02-24T19:24:00.651Z,23.00
2023-02-24T19:26:27.806Z,19.25
2023-02-24T19:28:57.279Z,29.75
2023-02-24T19:31:26.780Z,36.50
2023-02-24T19:33:54.536Z,34.25
2023-02-24T19:36:22.768Z,33.25
2023-02-24T19:38:50.000Z,29.50
2023-02-24T19:41:16.781Z,19.00
2023-02-24T19:43:44.248Z,57.25
2023-02-24T19:46:14.545Z,52.00
2023-02-24T19:48:41.838Z,53.75
2023-02-24T19:51:09.676Z,59.25
2023-02-24T19:53:37.058Z,64.50
2023-02-24T19:56:04.675Z,39.00
2023-02-24T19:58:31.678Z,56.00
2023-02-24T20:01:05.029Z,37.75
2023-02-24T20:03:33.645Z,12.25
2023-02-24T20:06:00.590Z,8.50
2023-02-24T20:08:27.434Z,7.25
2023-02-24T20:11:01.528Z,7.50
2023-02-24T20:13:28.720Z,11.25
2023-02-24T20:16:04.716Z,14.00
2023-02-24T20:18:33.075Z,18.75
2023-02-24T20:21:01.364Z,13.50
2023-02-24T20:23:28.989Z,18.75
2023-02-24T20:25:56.987Z,18.00
2023-02-24T20:28:24.675Z,7.00
2023-02-24T20:30:51.539Z,9.00
2023-02-24T20:33:19.132Z,6.75
2023-02-24T20:35:47.364Z,6.50
2023-02-24T20:38:14.365Z,3.00
2023-02-24T20:40:41.515Z,6.00
2023-02-24T20:43:09.297Z,6.00
2023-02-24T20:45:38.110Z,5.25
2023-02-24T20:48:05.336Z,5.25
2023-02-24T20:50:32.233Z,5.75
2023-02-24T20:53:00.660Z,1.25
2023-02-24T20:55:27.777Z,2.50
2023-02-24T20:57:54.626Z,4.00
2023-02-24T21:00:21.946Z,2.75
2023-02-24T21:02:48.906Z,1.50
2023-02-24T21:05:20.746Z,0.50
2023-02-24T21:07:50.159Z,0.00
2023-02-24T21:10:20.327Z,3.00
2023-02-24T21:12:47.114Z,1.75
2023-02-24T21:15:13.985Z,1.00
2023-02-24T21:17:41.363Z,5.00
2023-02-24T21:20:10.284Z,0.75
2023-02-24T21:22:38.660Z,19.50
2023-02-24T21:25:06.256Z,0.00
2023-02-24T21:27:34.718Z,3.25
2023-02-24T21:30:01.420Z,4.50
2023-02-24T21:32:28.151Z,1.25
2023-02-24T21:34:54.891Z,2.00
2023-02-24T21:37:21.697Z,1.25
2023-02-24T21:39:48.581Z,1.50
2023-02-24T21:42:15.389Z,1.50
2023-02-24T21:44:44.697Z,2.75
2023-02-24T21:47:11.554Z,1.00
2023-02-24T21:49:38.401Z,1.00
2023-02-24T21:52:05.103Z,0.75
2023-02-24T21:54:32.027Z,2.00
2023-02-24T21:56:58.929Z,1.00
2023-02-24T21:59:26.129Z,1.75
2023-02-24T22:01:54.528Z,2.50
2023-02-24T22:04:21.759Z,0.25
2023-02-24T22:06:49.038Z,1.50
2023-02-24T22:09:16.894Z,1.00
2023-02-24T22:11:43.713Z,1.25
2023-02-24T22:14:13.335Z,3.00
2023-02-24T22:16:41.444Z,1.00
2023-02-24T22:19:10.412Z,1.75
2023-02-24T22:21:38.052Z,2.00
2023-02-24T22:24:05.763Z,0.75
2023-02-24T22:26:33.155Z,0.50
2023-02-24T22:29:01.049Z,1.00
2023-02-24T22:31:30.241Z,1.00
2023-02-24T22:33:57.182Z,1.00
2023-02-24T22:36:27.729Z,1.00
2023-02-24T22:38:55.875Z,3.00
2023-02-24T22:41:24.772Z,1.25
2023-02-24T22:43:53.321Z,19.50
2023-02-24T22:46:22.216Z,3.50
2023-02-24T22:48:49.338Z,8.50
2023-02-24T22:51:17.179Z,1.00
2023-02-24T22:53:47.507Z,1.00
2023-02-24T22:56:16.834Z,5.50
2023-02-24T22:58:44.090Z,14.50
2023-02-24T23:01:12.294Z,0.00
2023-02-24T23:03:39.855Z,2.00
2023-02-24T23:06:08.867Z,1.00
2023-02-24T23:08:37.916Z,3.00
2023-02-24T23:11:09.109Z,0.75
2023-02-24T23:13:35.870Z,1.00
2023-02-24T23:16:03.117Z,12.00
2023-02-24T23:18:30.007Z,2.00
2023-02-24T23:21:00.431Z,2.75
2023-02-24T23:23:27.768Z,1.00
2023-02-24T23:25:54.687Z,1.00
2023-02-24T23:28:24.532Z,1.75
2023-02-24T23:30:51.911Z,0.00
2023-02-24T23:33:19.399Z,11.25
2023-02-24T23:35:46.539Z,3.00
2023-02-24T23:38:14.140Z,2.00
2023-02-24T23:40:50.089Z,2.00
2023-02-24T23:43:17.621Z,1.00
2023-02-24T23:45:46.072Z,2.00
2023-02-24T23:48:14.976Z,1.75
2023-02-24T23:50:43.578Z,3.25
2023-02-24T23:53:11.353Z,3.75
2023-02-24T23:55:39.349Z,4.00
2023-02-24T23:58:06.534Z,1.00
